createdAt,value
2022-10-17T00:03:06.371Z,36.45
2022-10-17T00:08:11.290Z,36.33
2022-10-17T00:13:14.315Z,36.50
2022-10-17T00:18:17.306Z,36.42
2022-10-17T00:23:21.627Z,36.38
2022-10-17T00:28:24.670Z,36.38
2022-10-17T00:33:28.470Z,36.20
2022-10-17T00:38:32.810Z,36.05
2022-10-17T00:43:51.409Z,36.65
2022-10-17T00:48:56.056Z,36.50
2022-10-17T00:54:01.752Z,36.08
2022-10-17T00:59:22.748Z,35.92
2022-10-17T01:04:25.665Z,36.08
2022-10-17T01:09:30.199Z,36.67
2022-10-17T01:14:42.281Z,35.92
2022-10-17T01:20:06.853Z,36.53
2022-10-17T01:25:27.762Z,36.08
2022-10-17T01:30:56.885Z,36.08
2022-10-17T01:36:06.163Z,36.17
2022-10-17T01:41:17.941Z,36.08
2022-10-17T01:46:27.969Z,36.05
2022-10-17T01:51:35.069Z,36.05
2022-10-17T01:56:40.992Z,36.60
2022-10-17T02:01:49.190Z,36.15
2022-10-17T02:06:52.393Z,36.53
2022-10-17T02:12:16.951Z,36.38
2022-10-17T02:17:33.908Z,36.53
2022-10-17T02:22:42.879Z,36.85
2022-10-17T02:27:51.592Z,36.08
2022-10-17T02:33:01.595Z,36.33
2022-10-17T02:38:05.908Z,36.28
2022-10-17T02:43:09.371Z,36.22
2022-10-17T02:48:19.303Z,35.67
2022-10-17T02:53:30.782Z,35.97
2022-10-17T02:58:36.730Z,37.00
2022-10-17T03:04:08.637Z,36.00
2022-10-17T03:09:11.585Z,36.05
2022-10-17T03:14:14.542Z,36.30
2022-10-17T03:19:19.268Z,36.28
2022-10-17T03:24:22.187Z,35.70
2022-10-17T03:29:25.318Z,35.88
2022-10-17T03:34:31.225Z,36.13
2022-10-17T03:39:34.254Z,39.47
2022-10-17T03:44:37.290Z,38.85
2022-10-17T03:49:42.172Z,38.30
2022-10-17T03:54:45.171Z,36.60
2022-10-17T03:59:48.298Z,36.80
2022-10-17T04:05:11.972Z,40.10
2022-10-17T04:10:14.962Z,36.33
2022-10-17T04:15:19.089Z,36.03
2022-10-17T04:20:24.032Z,36.55
2022-10-17T04:25:27.044Z,35.85
2022-10-17T04:30:30.181Z,35.92
2022-10-17T04:35:34.644Z,35.60
2022-10-17T04:40:40.343Z,35.90
2022-10-17T04:45:43.411Z,36.03
2022-10-17T04:50:56.284Z,36.38
2022-10-17T04:56:10.443Z,37.63
2022-10-17T05:01:15.505Z,38.10
2022-10-17T05:06:22.596Z,37.13
2022-10-17T05:11:44.125Z,36.05
2022-10-17T05:16:48.142Z,35.58
2022-10-17T05:21:52.491Z,35.92
2022-10-17T05:26:55.489Z,35.33
2022-10-17T05:31:58.861Z,35.55
2022-10-17T05:37:03.175Z,35.55
2022-10-17T05:42:08.690Z,35.47
2022-10-17T05:47:12.404Z,35.38
2022-10-17T05:52:16.669Z,36.40
2022-10-17T05:57:39.865Z,35.75
2022-10-17T06:02:47.997Z,36.55
2022-10-17T06:07:57.003Z,36.45
2022-10-17T06:13:03.043Z,36.25
2022-10-17T06:18:06.112Z,36.15
2022-10-17T06:23:10.510Z,36.90
2022-10-17T06:28:33.451Z,38.67
2022-10-17T06:33:36.991Z,39.42
2022-10-17T06:38:42.433Z,39.58
2022-10-17T06:43:53.866Z,37.40
2022-10-17T06:49:25.885Z,36.90
2022-10-17T06:54:37.350Z,37.28
2022-10-17T07:00:07.519Z,37.22
2022-10-17T07:05:19.136Z,37.78
2022-10-17T07:10:23.590Z,38.70
2022-10-17T07:15:27.787Z,38.38
2022-10-17T07:20:30.781Z,38.92
2022-10-17T07:25:39.257Z,39.35
2022-10-17T07:30:45.099Z,39.08
2022-10-17T07:35:48.765Z,38.90
2022-10-17T07:40:56.962Z,38.08
2022-10-17T07:46:01.745Z,37.97
2022-10-17T07:51:09.085Z,37.78
2022-10-17T07:56:13.383Z,39.25
2022-10-17T08:01:16.463Z,39.28
2022-10-17T08:06:19.668Z,38.65
2022-10-17T08:11:25.280Z,38.20
2022-10-17T08:16:28.309Z,37.22
2022-10-17T08:21:31.703Z,37.55
2022-10-17T08:26:39.268Z,38.55
2022-10-17T08:31:47.792Z,38.03
2022-10-17T08:36:51.871Z,37.83
2022-10-17T08:42:07.531Z,37.95
2022-10-17T08:47:14.310Z,36.92
2022-10-17T08:52:27.488Z,37.70
2022-10-17T08:57:32.754Z,37.92
2022-10-17T09:02:44.396Z,38.83
2022-10-17T09:07:55.090Z,37.47
2022-10-17T09:13:15.631Z,37.92
2022-10-17T09:18:24.886Z,37.95
2022-10-17T09:23:31.195Z,37.88
2022-10-17T09:28:38.366Z,37.38
2022-10-17T09:33:53.781Z,37.53
2022-10-17T09:38:58.921Z,38.03
2022-10-17T09:44:15.953Z,37.60
2022-10-17T09:49:23.030Z,38.05
2022-10-17T09:54:30.063Z,37.47
2022-10-17T09:59:36.720Z,38.22
2022-10-17T10:05:09.288Z,37.58
2022-10-17T10:10:27.758Z,38.33
2022-10-17T10:15:35.551Z,38.05
2022-10-17T10:20:39.089Z,37.70
2022-10-17T10:25:54.273Z,38.05
2022-10-17T10:31:01.380Z,37.83
2022-10-17T10:36:07.747Z,37.22
2022-10-17T10:41:12.336Z,37.50
2022-10-17T10:46:23.859Z,37.92
2022-10-17T10:51:32.008Z,37.67
2022-10-17T10:56:39.624Z,37.25
2022-10-17T11:01:53.385Z,37.92
2022-10-17T11:07:02.499Z,37.60
2022-10-17T11:12:12.719Z,37.67
2022-10-17T11:17:28.859Z,37.80
2022-10-17T11:22:35.327Z,38.15
2022-10-17T11:27:39.225Z,38.30
2022-10-17T11:32:46.995Z,38.80
2022-10-17T11:37:55.062Z,38.10
2022-10-17T11:43:02.053Z,38.00
2022-10-17T11:48:12.769Z,37.70
2022-10-17T11:53:18.378Z,38.35
2022-10-17T11:58:32.628Z,38.63
2022-10-17T12:03:54.052Z,38.58
2022-10-17T12:09:04.137Z,38.80
2022-10-17T12:14:37.817Z,38.60
2022-10-17T12:19:42.201Z,37.88
2022-10-17T12:24:47.286Z,38.38
2022-10-17T12:29:50.970Z,38.55
2022-10-17T12:34:57.452Z,38.45
2022-10-17T12:40:00.693Z,38.58
2022-10-17T12:45:04.838Z,38.30
2022-10-17T12:50:47.036Z,38.45
2022-10-17T12:55:51.889Z,38.30
2022-10-17T13:01:23.578Z,38.55
2022-10-17T13:06:23.161Z,38.42
2022-10-17T13:11:30.875Z,38.90
2022-10-17T13:16:37.143Z,38.60
2022-10-17T13:21:40.083Z,38.10
2022-10-17T13:26:47.600Z,38.58
2022-10-17T13:31:54.968Z,38.25
2022-10-17T13:37:00.135Z,38.80
2022-10-17T13:42:04.615Z,39.15
2022-10-17T13:47:07.735Z,38.80
2022-10-17T13:52:19.198Z,38.90
2022-10-17T13:57:26.469Z,39.00
2022-10-17T14:02:31.749Z,38.83
2022-10-17T14:08:09.120Z,38.83
2022-10-17T14:13:22.500Z,38.88
2022-10-17T14:18:36.617Z,38.95
2022-10-17T14:24:13.369Z,39.08
2022-10-17T14:29:25.468Z,38.83
2022-10-17T14:34:32.586Z,39.40
2022-10-17T14:39:41.850Z,38.65
2022-10-17T14:44:57.419Z,38.60
2022-10-17T14:50:06.188Z,38.53
2022-10-17T14:55:24.295Z,39.40
2022-10-17T15:00:29.282Z,39.75
2022-10-17T15:05:32.587Z,51.20
2022-10-17T15:10:37.332Z,41.28
2022-10-17T15:15:43.340Z,40.13
2022-10-17T15:20:46.333Z,39.03
2022-10-17T15:25:49.253Z,39.08
2022-10-17T15:30:53.583Z,39.05
2022-10-17T15:35:59.256Z,39.03
2022-10-17T15:41:02.163Z,38.88
2022-10-17T15:46:12.905Z,39.85
2022-10-17T15:51:16.342Z,40.10
2022-10-17T15:56:24.176Z,39.40
2022-10-17T16:01:30.608Z,40.22
2022-10-17T16:06:33.659Z,39.88
2022-10-17T16:11:38.503Z,40.85
2022-10-17T16:16:43.254Z,39.45
2022-10-17T16:21:46.325Z,40.28
2022-10-17T16:26:49.289Z,39.67
2022-10-17T16:31:53.509Z,39.70
2022-10-17T16:36:56.462Z,39.67
2022-10-17T16:41:59.350Z,39.22
2022-10-17T16:47:03.558Z,39.13
2022-10-17T16:52:06.705Z,38.85
2022-10-17T16:57:09.799Z,38.92
2022-10-17T17:02:21.337Z,39.42
2022-10-17T17:07:25.086Z,38.95
2022-10-17T17:12:27.969Z,39.42
2022-10-17T17:17:48.704Z,39.03
2022-10-17T17:22:54.364Z,39.42
2022-10-17T17:27:57.309Z,39.30
2022-10-17T17:33:01.679Z,39.60
2022-10-17T17:38:05.987Z,40.08
2022-10-17T17:43:08.851Z,39.55
2022-10-17T17:48:13.244Z,39.53
2022-10-17T17:53:17.550Z,41.88
2022-10-17T17:58:20.420Z,38.35
2022-10-17T18:03:24.734Z,40.00
2022-10-17T18:08:27.693Z,39.38
2022-10-17T18:13:31.738Z,39.55
2022-10-17T18:18:37.419Z,39.08
2022-10-17T18:23:40.936Z,39.20
2022-10-17T18:28:45.193Z,39.40
2022-10-17T18:33:52.241Z,39.05
2022-10-17T18:38:56.113Z,38.45
2022-10-17T18:43:59.355Z,38.17
2022-10-17T18:49:03.950Z,38.50
2022-10-17T18:54:12.348Z,38.28
2022-10-17T18:59:15.290Z,38.47
2022-10-17T19:04:20.756Z,38.45
2022-10-17T19:09:23.625Z,37.78
2022-10-17T19:14:28.596Z,38.25
2022-10-17T19:19:33.143Z,37.97
2022-10-17T19:24:42.376Z,37.92
2022-10-17T19:29:45.411Z,38.35
2022-10-17T19:34:49.627Z,38.28
2022-10-17T19:39:52.522Z,38.58
2022-10-17T19:44:55.358Z,38.83
2022-10-17T19:49:59.621Z,38.88
2022-10-17T19:55:02.518Z,38.28
2022-10-17T20:00:06.515Z,38.20
2022-10-17T20:05:19.034Z,38.08
2022-10-17T20:10:23.146Z,38.60
2022-10-17T20:15:27.086Z,38.10
2022-10-17T20:20:31.970Z,38.00
2022-10-17T20:25:38.113Z,39.03
2022-10-17T20:30:45.536Z,41.78
2022-10-17T20:35:49.803Z,38.22
2022-10-17T20:40:52.746Z,38.78
2022-10-17T20:46:03.543Z,38.20
2022-10-17T20:51:14.023Z,38.00
2022-10-17T20:56:19.990Z,37.35
2022-10-17T21:01:23.764Z,37.55
2022-10-17T21:06:30.150Z,37.95
2022-10-17T21:11:33.574Z,38.60
2022-10-17T21:16:38.345Z,38.83
2022-10-17T21:21:44.162Z,38.28
2022-10-17T21:26:49.726Z,37.65
2022-10-17T21:31:52.765Z,37.53
2022-10-17T21:36:58.009Z,37.78
2022-10-17T21:42:00.895Z,37.88
2022-10-17T21:47:04.078Z,37.38
2022-10-17T21:52:08.390Z,37.65
2022-10-17T21:57:11.355Z,38.13
2022-10-17T22:02:16.275Z,37.22
2022-10-17T22:07:21.028Z,37.92
2022-10-17T22:12:23.921Z,38.13
2022-10-17T22:17:26.786Z,37.38
2022-10-17T22:22:31.505Z,37.78
2022-10-17T22:27:34.480Z,37.92
2022-10-17T22:32:37.402Z,37.78
2022-10-17T22:37:41.621Z,36.97
2022-10-17T22:42:44.485Z,38.08
2022-10-17T22:47:47.374Z,37.55
2022-10-17T22:52:51.851Z,38.63
2022-10-17T22:57:54.790Z,39.33
2022-10-17T23:02:57.647Z,38.50
2022-10-17T23:08:01.918Z,38.35
2022-10-17T23:13:04.963Z,37.45
2022-10-17T23:18:08.962Z,38.58
2022-10-17T23:23:13.231Z,37.92
2022-10-17T23:28:16.517Z,38.90
2022-10-17T23:33:19.400Z,37.97
2022-10-17T23:38:23.684Z,37.05
2022-10-17T23:43:26.602Z,37.65
2022-10-17T23:48:29.469Z,37.63
2022-10-17T23:53:33.909Z,38.10
2022-10-17T23:58:59.555Z,37.08
